sensor_id;sensor_type;location;lat;lon;timestamp;P1;durP1;ratioP1;P2;durP2;ratioP2
23362;SDS011;11853;48.080;11.960;2023-04-26T00:01:46;3.33;;;3.03;;
23362;SDS011;11853;48.080;11.960;2023-04-26T00:04:12;3.15;;;2.90;;
23362;SDS011;11853;48.080;11.960;2023-04-26T00:06:37;3.90;;;3.13;;
23362;SDS011;11853;48.080;11.960;2023-04-26T00:09:03;3.80;;;3.50;;
23362;SDS011;11853;48.080;11.960;2023-04-26T00:11:29;3.78;;;3.40;;
23362;SDS011;11853;48.080;11.960;2023-04-26T00:13:56;3.80;;;3.50;;
23362;SDS011;11853;48.080;11.960;2023-04-26T00:16:22;4.38;;;4.03;;
23362;SDS011;11853;48.080;11.960;2023-04-26T00:18:48;7.45;;;4.22;;
23362;SDS011;11853;48.080;11.960;2023-04-26T00:21:14;4.95;;;4.45;;
23362;SDS011;11853;48.080;11.960;2023-04-26T00:23:39;5.15;;;4.43;;
23362;SDS011;11853;48.080;11.960;2023-04-26T00:26:06;4.85;;;4.45;;
23362;SDS011;11853;48.080;11.960;2023-04-26T00:28:31;5.80;;;5.03;;
23362;SDS011;11853;48.080;11.960;2023-04-26T00:30:57;5.65;;;5.15;;
23362;SDS011;11853;48.080;11.960;2023-04-26T00:33:23;7.43;;;5.78;;
23362;SDS011;11853;48.080;11.960;2023-04-26T00:35:48;7.28;;;6.28;;
23362;SDS011;11853;48.080;11.960;2023-04-26T00:38:14;7.10;;;6.15;;
23362;SDS011;11853;48.080;11.960;2023-04-26T00:40:40;6.47;;;5.88;;
23362;SDS011;11853;48.080;11.960;2023-04-26T00:43:05;7.47;;;6.43;;
23362;SDS011;11853;48.080;11.960;2023-04-26T00:45:31;7.53;;;6.53;;
23362;SDS011;11853;48.080;11.960;2023-04-26T00:47:58;7.60;;;6.80;;
23362;SDS011;11853;48.080;11.960;2023-04-26T00:50:25;7.03;;;6.32;;
23362;SDS011;11853;48.080;11.960;2023-04-26T00:52:51;9.13;;;6.80;;
23362;SDS011;11853;48.080;11.960;2023-04-26T00:55:17;9.48;;;7.43;;
23362;SDS011;11853;48.080;11.960;2023-04-26T00:57:45;8.18;;;7.38;;
23362;SDS011;11853;48.080;11.960;2023-04-26T01:00:11;8.38;;;7.50;;
23362;SDS011;11853;48.080;11.960;2023-04-26T01:02:37;8.73;;;7.72;;
23362;SDS011;11853;48.080;11.960;2023-04-26T01:05:03;9.25;;;7.53;;
23362;SDS011;11853;48.080;11.960;2023-04-26T01:07:29;8.80;;;7.47;;
23362;SDS011;11853;48.080;11.960;2023-04-26T01:09:56;8.38;;;7.57;;
23362;SDS011;11853;48.080;11.960;2023-04-26T01:12:23;9.07;;;7.47;;
23362;SDS011;11853;48.080;11.960;2023-04-26T01:14:49;10.38;;;8.60;;
23362;SDS011;11853;48.080;11.960;2023-04-26T01:17:15;10.80;;;8.25;;
23362;SDS011;11853;48.080;11.960;2023-04-26T01:19:47;9.27;;;7.78;;
23362;SDS011;11853;48.080;11.960;2023-04-26T01:22:13;9.88;;;8.57;;
23362;SDS011;11853;48.080;11.960;2023-04-26T01:24:39;10.23;;;7.97;;
23362;SDS011;11853;48.080;11.960;2023-04-26T01:27:07;9.63;;;8.20;;
23362;SDS011;11853;48.080;11.960;2023-04-26T01:29:33;10.30;;;7.90;;
23362;SDS011;11853;48.080;11.960;2023-04-26T01:31:59;10.80;;;8.02;;
23362;SDS011;11853;48.080;11.960;2023-04-26T01:34:25;9.57;;;8.32;;
23362;SDS011;11853;48.080;11.960;2023-04-26T01:36:50;9.15;;;8.25;;
23362;SDS011;11853;48.080;11.960;2023-04-26T01:39:16;8.48;;;7.57;;
23362;SDS011;11853;48.080;11.960;2023-04-26T01:41:41;10.60;;;7.82;;
23362;SDS011;11853;48.080;11.960;2023-04-26T01:44:07;9.45;;;7.80;;
23362;SDS011;11853;48.080;11.960;2023-04-26T01:46:32;10.00;;;8.05;;
23362;SDS011;11853;48.080;11.960;2023-04-26T01:48:58;12.20;;;9.00;;
23362;SDS011;11853;48.080;11.960;2023-04-26T01:51:24;9.52;;;7.95;;
23362;SDS011;11853;48.080;11.960;2023-04-26T01:53:50;9.95;;;8.88;;
23362;SDS011;11853;48.080;11.960;2023-04-26T01:56:15;12.80;;;9.45;;
23362;SDS011;11853;48.080;11.960;2023-04-26T01:58:42;11.98;;;8.98;;
23362;SDS011;11853;48.080;11.960;2023-04-26T02:01:08;12.02;;;9.32;;
23362;SDS011;11853;48.080;11.960;2023-04-26T02:03:34;9.80;;;8.80;;
23362;SDS011;11853;48.080;11.960;2023-04-26T02:06:00;12.52;;;9.30;;
23362;SDS011;11853;48.080;11.960;2023-04-26T02:08:26;10.85;;;9.60;;
23362;SDS011;11853;48.080;11.960;2023-04-26T02:10:51;11.20;;;9.18;;
23362;SDS011;11853;48.080;11.960;2023-04-26T02:13:17;11.75;;;9.25;;
23362;SDS011;11853;48.080;11.960;2023-04-26T02:15:47;11.90;;;9.23;;
23362;SDS011;11853;48.080;11.960;2023-04-26T02:18:13;12.27;;;8.90;;
23362;SDS011;11853;48.080;11.960;2023-04-26T02:20:43;10.77;;;9.13;;
23362;SDS011;11853;48.080;11.960;2023-04-26T02:23:09;9.90;;;8.77;;
23362;SDS011;11853;48.080;11.960;2023-04-26T02:25:36;9.98;;;8.93;;
23362;SDS011;11853;48.080;11.960;2023-04-26T02:28:02;13.05;;;9.38;;
23362;SDS011;11853;48.080;11.960;2023-04-26T02:30:28;12.95;;;9.27;;
23362;SDS011;11853;48.080;11.960;2023-04-26T02:32:54;11.07;;;9.10;;
23362;SDS011;11853;48.080;11.960;2023-04-26T02:35:20;11.50;;;9.32;;
23362;SDS011;11853;48.080;11.960;2023-04-26T02:37:46;12.27;;;9.52;;
23362;SDS011;11853;48.080;11.960;2023-04-26T02:40:13;13.23;;;10.07;;
23362;SDS011;11853;48.080;11.960;2023-04-26T02:42:40;9.55;;;8.05;;
23362;SDS011;11853;48.080;11.960;2023-04-26T02:45:06;10.20;;;8.18;;
23362;SDS011;11853;48.080;11.960;2023-04-26T02:47:32;10.02;;;7.28;;
23362;SDS011;11853;48.080;11.960;2023-04-26T02:50:00;10.38;;;7.97;;
23362;SDS011;11853;48.080;11.960;2023-04-26T02:52:30;8.90;;;7.93;;
23362;SDS011;11853;48.080;11.960;2023-04-26T02:54:55;9.60;;;7.90;;
23362;SDS011;11853;48.080;11.960;2023-04-26T02:57:21;9.00;;;8.10;;
23362;SDS011;11853;48.080;11.960;2023-04-26T02:59:46;10.38;;;7.90;;
23362;SDS011;11853;48.080;11.960;2023-04-26T03:02:12;10.52;;;8.45;;
23362;SDS011;11853;48.080;11.960;2023-04-26T03:04:37;10.63;;;8.27;;
23362;SDS011;11853;48.080;11.960;2023-04-26T03:07:04;9.43;;;7.68;;
23362;SDS011;11853;48.080;11.960;2023-04-26T03:09:29;9.95;;;8.25;;
23362;SDS011;11853;48.080;11.960;2023-04-26T03:11:55;10.18;;;8.05;;
23362;SDS011;11853;48.080;11.960;2023-04-26T03:17:42;8.30;;;7.10;;
23362;SDS011;11853;48.080;11.960;2023-04-26T03:20:08;9.02;;;7.60;;
23362;SDS011;11853;48.080;11.960;2023-04-26T03:22:35;11.68;;;7.63;;
23362;SDS011;11853;48.080;11.960;2023-04-26T03:25:00;8.20;;;6.93;;
23362;SDS011;11853;48.080;11.960;2023-04-26T03:27:28;7.78;;;6.60;;
23362;SDS011;11853;48.080;11.960;2023-04-26T03:33:15;9.90;;;7.70;;
23362;SDS011;11853;48.080;11.960;2023-04-26T03:35:40;9.13;;;7.72;;
23362;SDS011;11853;48.080;11.960;2023-04-26T03:38:07;11.27;;;8.07;;
23362;SDS011;11853;48.080;11.960;2023-04-26T03:40:33;12.43;;;8.60;;
23362;SDS011;11853;48.080;11.960;2023-04-26T03:42:58;9.32;;;6.90;;
23362;SDS011;11853;48.080;11.960;2023-04-26T03:45:24;8.77;;;7.45;;
23362;SDS011;11853;48.080;11.960;2023-04-26T03:47:50;7.38;;;6.68;;
23362;SDS011;11853;48.080;11.960;2023-04-26T03:50:16;12.43;;;7.57;;
23362;SDS011;11853;48.080;11.960;2023-04-26T03:52:42;12.05;;;7.40;;
23362;SDS011;11853;48.080;11.960;2023-04-26T03:55:07;8.43;;;6.72;;
23362;SDS011;11853;48.080;11.960;2023-04-26T03:57:34;10.07;;;7.05;;
23362;SDS011;11853;48.080;11.960;2023-04-26T04:00:00;11.68;;;7.85;;
23362;SDS011;11853;48.080;11.960;2023-04-26T04:02:26;9.23;;;6.90;;
23362;SDS011;11853;48.080;11.960;2023-04-26T04:04:51;8.02;;;6.88;;
23362;SDS011;11853;48.080;11.960;2023-04-26T04:07:17;8.95;;;7.25;;
23362;SDS011;11853;48.080;11.960;2023-04-26T04:09:43;9.52;;;6.93;;
23362;SDS011;11853;48.080;11.960;2023-04-26T04:12:08;9.25;;;6.97;;
23362;SDS011;11853;48.080;11.960;2023-04-26T04:14:34;9.70;;;7.38;;
23362;SDS011;11853;48.080;11.960;2023-04-26T04:16:59;8.80;;;6.97;;
23362;SDS011;11853;48.080;11.960;2023-04-26T04:19:25;9.57;;;7.00;;
23362;SDS011;11853;48.080;11.960;2023-04-26T04:21:51;10.55;;;7.18;;
23362;SDS011;11853;48.080;11.960;2023-04-26T04:24:16;8.70;;;6.70;;
23362;SDS011;11853;48.080;11.960;2023-04-26T04:26:44;9.93;;;7.13;;
23362;SDS011;11853;48.080;11.960;2023-04-26T04:29:09;8.55;;;7.10;;
23362;SDS011;11853;48.080;11.960;2023-04-26T04:31:35;7.88;;;6.72;;
23362;SDS011;11853;48.080;11.960;2023-04-26T04:34:01;7.38;;;6.60;;
23362;SDS011;11853;48.080;11.960;2023-04-26T04:36:26;8.23;;;6.90;;
23362;SDS011;11853;48.080;11.960;2023-04-26T04:38:52;10.45;;;6.85;;
23362;SDS011;11853;48.080;11.960;2023-04-26T04:41:17;7.93;;;6.13;;
23362;SDS011;11853;48.080;11.960;2023-04-26T04:43:46;10.43;;;7.55;;
23362;SDS011;11853;48.080;11.960;2023-04-26T04:46:11;8.32;;;7.13;;
23362;SDS011;11853;48.080;11.960;2023-04-26T04:48:37;9.10;;;7.10;;
23362;SDS011;11853;48.080;11.960;2023-04-26T04:51:03;9.23;;;6.78;;
23362;SDS011;11853;48.080;11.960;2023-04-26T04:53:29;8.93;;;6.95;;
23362;SDS011;11853;48.080;11.960;2023-04-26T04:55:54;10.57;;;6.93;;
23362;SDS011;11853;48.080;11.960;2023-04-26T04:58:21;7.43;;;6.43;;
23362;SDS011;11853;48.080;11.960;2023-04-26T05:00:47;8.10;;;6.95;;
23362;SDS011;11853;48.080;11.960;2023-04-26T05:03:13;8.45;;;6.80;;
23362;SDS011;11853;48.080;11.960;2023-04-26T05:05:39;8.98;;;7.10;;
23362;SDS011;11853;48.080;11.960;2023-04-26T05:08:04;11.32;;;7.03;;
23362;SDS011;11853;48.080;11.960;2023-04-26T05:10:33;8.85;;;6.55;;
23362;SDS011;11853;48.080;11.960;2023-04-26T05:12:59;8.60;;;7.28;;
23362;SDS011;11853;48.080;11.960;2023-04-26T05:15:25;8.90;;;6.80;;
23362;SDS011;11853;48.080;11.960;2023-04-26T05:17:51;9.32;;;6.75;;
23362;SDS011;11853;48.080;11.960;2023-04-26T05:20:17;7.40;;;6.63;;
23362;SDS011;11853;48.080;11.960;2023-04-26T05:22:42;7.38;;;6.40;;
23362;SDS011;11853;48.080;11.960;2023-04-26T05:25:08;7.70;;;6.70;;
23362;SDS011;11853;48.080;11.960;2023-04-26T05:27:34;9.25;;;7.68;;
23362;SDS011;11853;48.080;11.960;2023-04-26T05:30:02;7.82;;;6.38;;
23362;SDS011;11853;48.080;11.960;2023-04-26T05:32:28;8.55;;;6.88;;
23362;SDS011;11853;48.080;11.960;2023-04-26T05:41:31;8.93;;;6.60;;
23362;SDS011;11853;48.080;11.960;2023-04-26T05:44:31;9.45;;;7.53;;
23362;SDS011;11853;48.080;11.960;2023-04-26T05:46:57;7.85;;;6.97;;
23362;SDS011;11853;48.080;11.960;2023-04-26T05:49:26;8.65;;;6.93;;
23362;SDS011;11853;48.080;11.960;2023-04-26T05:51:52;7.97;;;7.18;;
23362;SDS011;11853;48.080;11.960;2023-04-26T05:54:17;9.35;;;7.38;;
23362;SDS011;11853;48.080;11.960;2023-04-26T05:56:43;9.65;;;6.78;;
23362;SDS011;11853;48.080;11.960;2023-04-26T05:59:08;9.45;;;7.20;;
23362;SDS011;11853;48.080;11.960;2023-04-26T06:01:36;10.55;;;8.10;;
23362;SDS011;11853;48.080;11.960;2023-04-26T06:04:01;8.43;;;6.43;;
23362;SDS011;11853;48.080;11.960;2023-04-26T06:06:27;7.20;;;6.50;;
23362;SDS011;11853;48.080;11.960;2023-04-26T06:08:53;7.38;;;6.60;;
23362;SDS011;11853;48.080;11.960;2023-04-26T06:11:18;7.78;;;6.78;;
23362;SDS011;11853;48.080;11.960;2023-04-26T06:13:45;8.73;;;7.63;;
23362;SDS011;11853;48.080;11.960;2023-04-26T06:16:11;12.68;;;7.88;;
23362;SDS011;11853;48.080;11.960;2023-04-26T06:18:37;8.13;;;7.32;;
23362;SDS011;11853;48.080;11.960;2023-04-26T06:21:04;7.85;;;6.78;;
23362;SDS011;11853;48.080;11.960;2023-04-26T06:23:29;7.60;;;6.78;;
23362;SDS011;11853;48.080;11.960;2023-04-26T06:25:55;7.57;;;6.78;;
23362;SDS011;11853;48.080;11.960;2023-04-26T06:28:21;6.85;;;6.15;;
23362;SDS011;11853;48.080;11.960;2023-04-26T06:30:46;9.90;;;7.00;;
23362;SDS011;11853;48.080;11.960;2023-04-26T06:33:12;10.00;;;6.53;;
23362;SDS011;11853;48.080;11.960;2023-04-26T06:35:38;10.65;;;7.28;;
23362;SDS011;11853;48.080;11.960;2023-04-26T06:38:05;7.85;;;6.93;;
23362;SDS011;11853;48.080;11.960;2023-04-26T06:40:31;9.50;;;6.93;;
23362;SDS011;11853;48.080;11.960;2023-04-26T06:42:57;10.68;;;7.25;;
23362;SDS011;11853;48.080;11.960;2023-04-26T06:45:23;8.30;;;7.45;;
23362;SDS011;11853;48.080;11.960;2023-04-26T06:47:52;8.35;;;7.32;;
23362;SDS011;11853;48.080;11.960;2023-04-26T06:50:17;7.72;;;6.82;;
23362;SDS011;11853;48.080;11.960;2023-04-26T06:52:43;8.77;;;7.25;;
23362;SDS011;11853;48.080;11.960;2023-04-26T06:55:09;9.40;;;7.00;;
23362;SDS011;11853;48.080;11.960;2023-04-26T06:57:35;10.20;;;7.32;;
23362;SDS011;11853;48.080;11.960;2023-04-26T07:00:01;9.85;;;7.65;;
23362;SDS011;11853;48.080;11.960;2023-04-26T07:02:28;9.30;;;7.00;;
23362;SDS011;11853;48.080;11.960;2023-04-26T07:04:54;10.52;;;7.38;;
23362;SDS011;11853;48.080;11.960;2023-04-26T07:07:19;8.88;;;7.28;;
23362;SDS011;11853;48.080;11.960;2023-04-26T07:09:46;8.43;;;7.35;;
23362;SDS011;11853;48.080;11.960;2023-04-26T07:12:11;10.13;;;7.97;;
23362;SDS011;11853;48.080;11.960;2023-04-26T07:14:38;9.30;;;7.60;;
23362;SDS011;11853;48.080;11.960;2023-04-26T07:17:05;10.05;;;7.45;;
23362;SDS011;11853;48.080;11.960;2023-04-26T07:19:31;13.85;;;10.75;;
23362;SDS011;11853;48.080;11.960;2023-04-26T07:21:57;12.27;;;9.80;;
23362;SDS011;11853;48.080;11.960;2023-04-26T07:24:23;10.48;;;9.30;;
23362;SDS011;11853;48.080;11.960;2023-04-26T07:26:48;13.18;;;9.23;;
23362;SDS011;11853;48.080;11.960;2023-04-26T07:29:14;10.15;;;8.43;;
23362;SDS011;11853;48.080;11.960;2023-04-26T07:31:40;11.07;;;8.00;;
23362;SDS011;11853;48.080;11.960;2023-04-26T07:34:06;10.50;;;7.78;;
23362;SDS011;11853;48.080;11.960;2023-04-26T07:36:31;8.70;;;7.43;;
23362;SDS011;11853;48.080;11.960;2023-04-26T07:38:57;9.85;;;7.78;;
23362;SDS011;11853;48.080;11.960;2023-04-26T07:41:22;9.95;;;7.72;;
23362;SDS011;11853;48.080;11.960;2023-04-26T07:43:48;10.15;;;7.65;;
23362;SDS011;11853;48.080;11.960;2023-04-26T07:46:14;11.18;;;7.95;;
23362;SDS011;11853;48.080;11.960;2023-04-26T07:48:40;11.52;;;7.78;;
23362;SDS011;11853;48.080;11.960;2023-04-26T07:51:06;10.88;;;7.55;;
23362;SDS011;11853;48.080;11.960;2023-04-26T07:53:35;10.30;;;8.02;;
23362;SDS011;11853;48.080;11.960;2023-04-26T07:56:03;8.52;;;6.50;;
23362;SDS011;11853;48.080;11.960;2023-04-26T07:58:30;9.25;;;7.00;;
23362;SDS011;11853;48.080;11.960;2023-04-26T08:00:57;10.98;;;7.78;;
23362;SDS011;11853;48.080;11.960;2023-04-26T08:03:23;9.20;;;7.05;;
23362;SDS011;11853;48.080;11.960;2023-04-26T08:05:49;12.10;;;7.88;;
23362;SDS011;11853;48.080;11.960;2023-04-26T08:08:15;8.98;;;7.80;;
23362;SDS011;11853;48.080;11.960;2023-04-26T08:10:40;10.13;;;7.72;;
23362;SDS011;11853;48.080;11.960;2023-04-26T08:13:06;12.77;;;7.82;;
23362;SDS011;11853;48.080;11.960;2023-04-26T08:15:32;8.90;;;7.70;;
23362;SDS011;11853;48.080;11.960;2023-04-26T08:17:58;11.85;;;7.25;;
23362;SDS011;11853;48.080;11.960;2023-04-26T08:20:24;11.65;;;7.65;;
23362;SDS011;11853;48.080;11.960;2023-04-26T08:22:53;9.15;;;6.72;;
23362;SDS011;11853;48.080;11.960;2023-04-26T08:25:21;6.60;;;5.70;;
23362;SDS011;11853;48.080;11.960;2023-04-26T08:27:47;8.85;;;6.25;;
23362;SDS011;11853;48.080;11.960;2023-04-26T08:30:12;9.07;;;6.00;;
23362;SDS011;11853;48.080;11.960;2023-04-26T08:32:38;9.90;;;6.13;;
23362;SDS011;11853;48.080;11.960;2023-04-26T08:35:05;10.35;;;5.28;;
23362;SDS011;11853;48.080;11.960;2023-04-26T08:37:31;9.50;;;5.28;;
23362;SDS011;11853;48.080;11.960;2023-04-26T08:39:57;9.27;;;5.55;;
23362;SDS011;11853;48.080;11.960;2023-04-26T08:42:25;6.43;;;4.90;;
23362;SDS011;11853;48.080;11.960;2023-04-26T08:44:52;15.07;;;10.30;;
23362;SDS011;11853;48.080;11.960;2023-04-26T08:47:24;16.45;;;9.63;;
23362;SDS011;11853;48.080;11.960;2023-04-26T08:49:56;18.33;;;12.82;;
23362;SDS011;11853;48.080;11.960;2023-04-26T08:52:28;7.35;;;5.43;;
23362;SDS011;11853;48.080;11.960;2023-04-26T08:54:58;5.55;;;4.15;;
23362;SDS011;11853;48.080;11.960;2023-04-26T08:57:24;7.53;;;4.38;;
23362;SDS011;11853;48.080;11.960;2023-04-26T08:59:50;5.60;;;4.03;;
23362;SDS011;11853;48.080;11.960;2023-04-26T09:02:18;4.30;;;3.90;;
23362;SDS011;11853;48.080;11.960;2023-04-26T09:04:45;4.18;;;3.30;;
23362;SDS011;11853;48.080;11.960;2023-04-26T09:07:21;6.57;;;3.60;;
23362;SDS011;11853;48.080;11.960;2023-04-26T09:09:55;5.30;;;3.72;;
23362;SDS011;11853;48.080;11.960;2023-04-26T09:12:23;3.83;;;3.20;;
23362;SDS011;11853;48.080;11.960;2023-04-26T09:14:49;4.50;;;3.47;;
23362;SDS011;11853;48.080;11.960;2023-04-26T09:19:57;6.60;;;4.80;;
23362;SDS011;11853;48.080;11.960;2023-04-26T09:22:30;6.60;;;4.35;;
23362;SDS011;11853;48.080;11.960;2023-04-26T09:24:57;6.00;;;4.22;;
23362;SDS011;11853;48.080;11.960;2023-04-26T09:30:06;4.00;;;2.95;;
23362;SDS011;11853;48.080;11.960;2023-04-26T09:35:17;3.22;;;2.65;;
23362;SDS011;11853;48.080;11.960;2023-04-26T09:37:53;5.10;;;3.30;;
23362;SDS011;11853;48.080;11.960;2023-04-26T09:40:27;4.13;;;3.03;;
23362;SDS011;11853;48.080;11.960;2023-04-26T09:43:04;4.05;;;2.75;;
23362;SDS011;11853;48.080;11.960;2023-04-26T09:45:32;3.67;;;2.80;;
23362;SDS011;11853;48.080;11.960;2023-04-26T09:48:16;4.32;;;2.92;;
23362;SDS011;11853;48.080;11.960;2023-04-26T09:50:42;5.80;;;3.35;;
23362;SDS011;11853;48.080;11.960;2023-04-26T09:53:10;4.43;;;2.90;;
23362;SDS011;11853;48.080;11.960;2023-04-26T09:55:49;3.80;;;2.53;;
23362;SDS011;11853;48.080;11.960;2023-04-26T09:58:15;3.45;;;2.83;;
23362;SDS011;11853;48.080;11.960;2023-04-26T10:00:41;4.85;;;3.15;;
23362;SDS011;11853;48.080;11.960;2023-04-26T10:03:07;4.97;;;3.40;;
23362;SDS011;11853;48.080;11.960;2023-04-26T10:05:34;7.13;;;3.78;;
23362;SDS011;11853;48.080;11.960;2023-04-26T10:08:01;4.25;;;3.20;;
23362;SDS011;11853;48.080;11.960;2023-04-26T10:10:28;5.78;;;3.50;;
23362;SDS011;11853;48.080;11.960;2023-04-26T10:12:55;4.07;;;3.45;;
23362;SDS011;11853;48.080;11.960;2023-04-26T10:15:21;4.45;;;3.40;;
23362;SDS011;11853;48.080;11.960;2023-04-26T10:17:47;6.47;;;3.83;;
23362;SDS011;11853;48.080;11.960;2023-04-26T10:20:13;5.20;;;4.28;;
23362;SDS011;11853;48.080;11.960;2023-04-26T10:22:44;6.63;;;4.40;;
23362;SDS011;11853;48.080;11.960;2023-04-26T10:25:14;5.85;;;3.55;;
23362;SDS011;11853;48.080;11.960;2023-04-26T10:30:20;10.68;;;6.18;;
23362;SDS011;11853;48.080;11.960;2023-04-26T10:35:28;7.07;;;4.60;;
23362;SDS011;11853;48.080;11.960;2023-04-26T10:40:32;4.30;;;3.70;;
23362;SDS011;11853;48.080;11.960;2023-04-26T10:45:43;6.20;;;3.70;;
23362;SDS011;11853;48.080;11.960;2023-04-26T10:48:17;4.57;;;3.38;;
23362;SDS011;11853;48.080;11.960;2023-04-26T10:53:29;4.20;;;3.20;;
23362;SDS011;11853;48.080;11.960;2023-04-26T10:58:47;4.43;;;3.20;;
23362;SDS011;11853;48.080;11.960;2023-04-26T11:03:41;4.07;;;2.72;;
23362;SDS011;11853;48.080;11.960;2023-04-26T11:06:25;3.90;;;2.70;;
23362;SDS011;11853;48.080;11.960;2023-04-26T11:12:06;5.75;;;3.50;;
23362;SDS011;11853;48.080;11.960;2023-04-26T11:14:37;3.97;;;2.95;;
23362;SDS011;11853;48.080;11.960;2023-04-26T11:17:03;3.65;;;2.85;;
23362;SDS011;11853;48.080;11.960;2023-04-26T11:19:32;4.60;;;3.42;;
23362;SDS011;11853;48.080;11.960;2023-04-26T11:21:58;4.60;;;2.92;;
23362;SDS011;11853;48.080;11.960;2023-04-26T11:24:31;4.80;;;3.55;;
23362;SDS011;11853;48.080;11.960;2023-04-26T11:26:58;4.43;;;3.30;;
23362;SDS011;11853;48.080;11.960;2023-04-26T11:29:24;6.97;;;3.47;;
23362;SDS011;11853;48.080;11.960;2023-04-26T11:31:52;4.10;;;2.90;;
23362;SDS011;11853;48.080;11.960;2023-04-26T11:36:49;2.97;;;2.38;;
23362;SDS011;11853;48.080;11.960;2023-04-26T11:39:15;3.35;;;2.35;;
23362;SDS011;11853;48.080;11.960;2023-04-26T11:41:41;4.93;;;2.33;;
23362;SDS011;11853;48.080;11.960;2023-04-26T11:44:07;4.53;;;2.47;;
23362;SDS011;11853;48.080;11.960;2023-04-26T11:46:35;3.60;;;2.70;;
23362;SDS011;11853;48.080;11.960;2023-04-26T11:49:01;3.17;;;2.65;;
23362;SDS011;11853;48.080;11.960;2023-04-26T11:51:27;3.53;;;2.80;;
23362;SDS011;11853;48.080;11.960;2023-04-26T11:53:54;3.95;;;2.83;;
23362;SDS011;11853;48.080;11.960;2023-04-26T11:56:20;4.70;;;2.72;;
23362;SDS011;11853;48.080;11.960;2023-04-26T11:58:50;4.05;;;3.35;;
23362;SDS011;11853;48.080;11.960;2023-04-26T12:01:20;5.22;;;2.78;;
23362;SDS011;11853;48.080;11.960;2023-04-26T12:03:48;3.38;;;2.50;;
23362;SDS011;11853;48.080;11.960;2023-04-26T12:06:18;3.15;;;2.30;;
23362;SDS011;11853;48.080;11.960;2023-04-26T12:08:48;3.47;;;2.50;;
23362;SDS011;11853;48.080;11.960;2023-04-26T12:11:15;4.55;;;2.60;;
23362;SDS011;11853;48.080;11.960;2023-04-26T12:13:42;4.45;;;2.47;;
23362;SDS011;11853;48.080;11.960;2023-04-26T12:16:07;4.78;;;2.88;;
23362;SDS011;11853;48.080;11.960;2023-04-26T12:18:33;3.38;;;2.70;;
23362;SDS011;11853;48.080;11.960;2023-04-26T12:20:59;5.65;;;3.08;;
23362;SDS011;11853;48.080;11.960;2023-04-26T12:23:26;3.03;;;2.70;;
23362;SDS011;11853;48.080;11.960;2023-04-26T12:25:53;3.53;;;3.03;;
23362;SDS011;11853;48.080;11.960;2023-04-26T12:28:19;7.35;;;4.60;;
23362;SDS011;11853;48.080;11.960;2023-04-26T12:30:46;7.60;;;5.00;;
23362;SDS011;11853;48.080;11.960;2023-04-26T12:33:12;6.50;;;4.45;;
23362;SDS011;11853;48.080;11.960;2023-04-26T12:35:38;7.50;;;4.82;;
23362;SDS011;11853;48.080;11.960;2023-04-26T12:38:04;4.97;;;4.07;;
23362;SDS011;11853;48.080;11.960;2023-04-26T12:40:29;4.82;;;4.30;;
23362;SDS011;11853;48.080;11.960;2023-04-26T12:42:55;7.07;;;5.53;;
23362;SDS011;11853;48.080;11.960;2023-04-26T12:45:22;7.40;;;5.13;;
23362;SDS011;11853;48.080;11.960;2023-04-26T12:47:49;7.07;;;4.80;;
23362;SDS011;11853;48.080;11.960;2023-04-26T12:50:16;8.38;;;5.03;;
23362;SDS011;11853;48.080;11.960;2023-04-26T12:52:42;7.97;;;4.53;;
23362;SDS011;11853;48.080;11.960;2023-04-26T12:55:09;6.20;;;4.13;;
23362;SDS011;11853;48.080;11.960;2023-04-26T12:57:36;6.53;;;4.40;;
23362;SDS011;11853;48.080;11.960;2023-04-26T13:00:03;5.10;;;3.75;;
23362;SDS011;11853;48.080;11.960;2023-04-26T13:02:30;6.85;;;3.90;;
23362;SDS011;11853;48.080;11.960;2023-04-26T13:04:57;4.22;;;3.75;;
23362;SDS011;11853;48.080;11.960;2023-04-26T13:07:22;7.70;;;3.67;;
23362;SDS011;11853;48.080;11.960;2023-04-26T13:09:48;7.57;;;4.57;;
23362;SDS011;11853;48.080;11.960;2023-04-26T13:12:14;7.70;;;4.90;;
23362;SDS011;11853;48.080;11.960;2023-04-26T13:14:40;6.28;;;4.68;;
23362;SDS011;11853;48.080;11.960;2023-04-26T13:17:05;5.10;;;4.25;;
23362;SDS011;11853;48.080;11.960;2023-04-26T13:19:33;7.70;;;4.25;;
23362;SDS011;11853;48.080;11.960;2023-04-26T13:22:03;10.60;;;4.85;;
23362;SDS011;11853;48.080;11.960;2023-04-26T13:24:29;5.05;;;3.95;;
23362;SDS011;11853;48.080;11.960;2023-04-26T13:26:55;6.95;;;3.70;;
23362;SDS011;11853;48.080;11.960;2023-04-26T13:29:22;6.53;;;3.85;;
23362;SDS011;11853;48.080;11.960;2023-04-26T13:31:48;4.70;;;3.60;;
23362;SDS011;11853;48.080;11.960;2023-04-26T13:34:14;7.65;;;4.10;;
23362;SDS011;11853;48.080;11.960;2023-04-26T13:36:39;7.05;;;3.75;;
23362;SDS011;11853;48.080;11.960;2023-04-26T13:39:06;5.65;;;3.35;;
23362;SDS011;11853;48.080;11.960;2023-04-26T13:41:32;4.07;;;3.58;;
23362;SDS011;11853;48.080;11.960;2023-04-26T13:44:02;5.07;;;3.50;;
23362;SDS011;11853;48.080;11.960;2023-04-26T13:46:28;5.80;;;3.60;;
23362;SDS011;11853;48.080;11.960;2023-04-26T13:48:54;12.68;;;5.40;;
23362;SDS011;11853;48.080;11.960;2023-04-26T13:51:20;24.65;;;8.77;;
23362;SDS011;11853;48.080;11.960;2023-04-26T13:53:46;15.27;;;6.40;;
23362;SDS011;11853;48.080;11.960;2023-04-26T13:56:12;17.42;;;6.35;;
23362;SDS011;11853;48.080;11.960;2023-04-26T13:58:40;8.43;;;4.50;;
23362;SDS011;11853;48.080;11.960;2023-04-26T14:01:07;13.77;;;5.80;;
23362;SDS011;11853;48.080;11.960;2023-04-26T14:03:33;8.77;;;5.05;;
23362;SDS011;11853;48.080;11.960;2023-04-26T14:05:58;7.22;;;4.38;;
23362;SDS011;11853;48.080;11.960;2023-04-26T14:08:26;4.93;;;4.20;;
23362;SDS011;11853;48.080;11.960;2023-04-26T14:10:52;5.88;;;4.03;;
23362;SDS011;11853;48.080;11.960;2023-04-26T14:13:18;11.40;;;5.38;;
23362;SDS011;11853;48.080;11.960;2023-04-26T14:15:43;7.00;;;4.88;;
23362;SDS011;11853;48.080;11.960;2023-04-26T14:18:09;9.50;;;4.72;;
23362;SDS011;11853;48.080;11.960;2023-04-26T14:20:35;5.55;;;4.30;;
23362;SDS011;11853;48.080;11.960;2023-04-26T14:23:01;19.67;;;6.57;;
23362;SDS011;11853;48.080;11.960;2023-04-26T14:25:26;8.85;;;4.80;;
23362;SDS011;11853;48.080;11.960;2023-04-26T14:27:52;5.68;;;3.50;;
23362;SDS011;11853;48.080;11.960;2023-04-26T14:30:18;7.72;;;4.35;;
23362;SDS011;11853;48.080;11.960;2023-04-26T14:32:45;4.78;;;4.07;;
23362;SDS011;11853;48.080;11.960;2023-04-26T14:35:10;5.95;;;3.42;;
23362;SDS011;11853;48.080;11.960;2023-04-26T14:37:36;5.78;;;3.78;;
23362;SDS011;11853;48.080;11.960;2023-04-26T14:40:02;5.35;;;4.13;;
23362;SDS011;11853;48.080;11.960;2023-04-26T14:42:30;5.63;;;4.13;;
23362;SDS011;11853;48.080;11.960;2023-04-26T14:44:59;5.75;;;3.97;;
23362;SDS011;11853;48.080;11.960;2023-04-26T14:47:24;3.80;;;3.40;;
23362;SDS011;11853;48.080;11.960;2023-04-26T14:49:51;5.72;;;3.58;;
23362;SDS011;11853;48.080;11.960;2023-04-26T14:52:16;5.00;;;3.70;;
23362;SDS011;11853;48.080;11.960;2023-04-26T14:54:42;3.75;;;3.38;;
23362;SDS011;11853;48.080;11.960;2023-04-26T14:57:08;5.05;;;3.55;;
23362;SDS011;11853;48.080;11.960;2023-04-26T14:59:34;6.53;;;4.00;;
23362;SDS011;11853;48.080;11.960;2023-04-26T15:02:00;5.53;;;3.58;;
23362;SDS011;11853;48.080;11.960;2023-04-26T15:04:27;3.63;;;3.22;;
23362;SDS011;11853;48.080;11.960;2023-04-26T15:06:52;8.35;;;3.72;;
23362;SDS011;11853;48.080;11.960;2023-04-26T15:09:18;4.57;;;3.83;;
23362;SDS011;11853;48.080;11.960;2023-04-26T15:11:45;5.32;;;3.90;;
23362;SDS011;11853;48.080;11.960;2023-04-26T15:14:10;5.10;;;4.10;;